createdAt,value
2019-03-12T00:00:00.706Z,1016.52
2019-03-12T00:01:00.762Z,1016.52
2019-03-12T00:02:00.682Z,1016.53
2019-03-12T00:03:00.690Z,1016.45
2019-03-12T00:04:00.665Z,1016.47
2019-03-12T00:05:00.654Z,1016.46
2019-03-12T00:06:00.637Z,1016.47
2019-03-12T00:07:00.656Z,1016.48
2019-03-12T00:08:00.623Z,1016.52
2019-03-12T00:09:00.597Z,1016.52
2019-03-12T00:10:00.604Z,1016.54
2019-03-12T00:11:00.584Z,1016.55
2019-03-12T00:12:00.597Z,1016.62
2019-03-12T00:13:00.593Z,1016.60
2019-03-12T00:14:00.543Z,1016.62
2019-03-12T00:15:00.532Z,1016.64
2019-03-12T00:16:00.523Z,1016.63
2019-03-12T00:17:00.517Z,1016.58
2019-03-12T00:18:00.538Z,1016.59
2019-03-12T00:19:00.495Z,1016.59
2019-03-12T00:20:00.489Z,1016.64
2019-03-12T00:21:00.482Z,1016.60
2019-03-12T00:22:00.460Z,1016.61
2019-03-12T00:23:00.476Z,1016.64
2019-03-12T00:24:00.437Z,1016.53
2019-03-12T00:25:00.474Z,1016.58
2019-03-12T00:26:00.417Z,1016.63
2019-03-12T00:27:00.406Z,1016.59
2019-03-12T00:28:00.399Z,1016.62
2019-03-12T00:29:00.409Z,1016.62
2019-03-12T00:30:00.479Z,1016.62
2019-03-12T00:31:00.364Z,1016.60
2019-03-12T00:32:00.345Z,1016.65
2019-03-12T00:33:00.339Z,1016.63
2019-03-12T00:34:00.332Z,1016.66
2019-03-12T00:35:00.399Z,1016.66
2019-03-12T00:36:00.305Z,1016.65
2019-03-12T00:37:00.306Z,1016.67
2019-03-12T00:38:00.279Z,1016.69
2019-03-12T00:39:00.277Z,1016.65
2019-03-12T00:40:00.372Z,1016.69
2019-03-12T00:41:00.250Z,1016.68
2019-03-12T00:42:00.243Z,1016.70
2019-03-12T00:43:00.241Z,1016.68
2019-03-12T00:44:00.214Z,1016.71
2019-03-12T00:45:00.459Z,1016.74
2019-03-12T00:46:00.227Z,1016.77
2019-03-12T00:47:00.189Z,1016.76
2019-03-12T00:48:00.182Z,1016.75
2019-03-12T00:49:00.166Z,1016.76
2019-03-12T00:50:00.378Z,1016.81
2019-03-12T00:51:00.206Z,1016.70
2019-03-12T00:52:00.165Z,1016.73
2019-03-12T00:53:00.128Z,1016.71
2019-03-12T00:54:00.122Z,1016.70
2019-03-12T00:55:00.167Z,1016.71
2019-03-12T00:56:00.104Z,1016.74
2019-03-12T00:57:00.102Z,1016.77
2019-03-12T00:58:00.070Z,1016.77
2019-03-12T00:59:00.078Z,1016.70
2019-03-12T01:00:00.066Z,1016.73
2019-03-12T01:01:00.040Z,1016.77
2019-03-12T01:02:00.027Z,1016.72
2019-03-12T01:03:00.036Z,1016.78
2019-03-12T01:04:00.008Z,1016.79
2019-03-12T01:05:00.001Z,1016.82
2019-03-12T01:05:59.980Z,1016.83
2019-03-12T01:07:00.032Z,1016.80
2019-03-12T01:07:59.965Z,1016.86
2019-03-12T01:08:59.971Z,1016.86
2019-03-12T01:09:59.940Z,1016.74
2019-03-12T01:10:59.932Z,1016.80
2019-03-12T01:11:59.920Z,1016.74
2019-03-12T01:12:59.946Z,1016.75
2019-03-12T01:13:59.917Z,1016.75
2019-03-12T01:14:59.887Z,1016.80
2019-03-12T01:15:59.883Z,1016.76
2019-03-12T01:16:59.878Z,1016.76
2019-03-12T01:17:59.843Z,1016.75
2019-03-12T01:18:59.863Z,1016.74
2019-03-12T01:19:59.851Z,1016.63
2019-03-12T01:20:59.819Z,1016.70
2019-03-12T01:21:59.854Z,1016.70
2019-03-12T01:22:59.817Z,1016.67
2019-03-12T01:23:59.790Z,1016.62
2019-03-12T01:24:59.776Z,1016.65
2019-03-12T01:25:59.780Z,1016.65
2019-03-12T01:26:59.790Z,1016.65
2019-03-12T01:27:59.770Z,1016.63
2019-03-12T01:28:59.728Z,1016.69
2019-03-12T01:29:59.712Z,1016.70
2019-03-12T01:30:59.737Z,1016.74
2019-03-12T01:31:59.709Z,1016.71
2019-03-12T01:32:59.688Z,1016.75
2019-03-12T01:33:59.700Z,1016.75
2019-03-12T01:34:59.670Z,1016.72
2019-03-12T01:35:59.648Z,1016.71
2019-03-12T01:36:59.644Z,1016.74
2019-03-12T01:37:59.648Z,1016.74
2019-03-12T01:38:59.618Z,1016.71
2019-03-12T01:39:59.629Z,1016.73
2019-03-12T01:40:59.602Z,1016.67
2019-03-12T01:41:59.585Z,1016.78
2019-03-12T01:42:59.577Z,1016.75
2019-03-12T01:43:59.603Z,1016.75
2019-03-12T01:44:59.589Z,1016.76
2019-03-12T01:45:59.564Z,1016.74
2019-03-12T01:46:59.534Z,1016.78
2019-03-12T01:47:59.522Z,1016.77
2019-03-12T01:48:59.516Z,1016.74
2019-03-12T01:49:59.523Z,1016.75
2019-03-12T01:50:59.507Z,1016.77
2019-03-12T01:51:59.514Z,1016.74
2019-03-12T01:52:59.474Z,1016.76
2019-03-12T01:53:59.465Z,1016.74
2019-03-12T01:54:59.469Z,1016.76
2019-03-12T01:55:59.453Z,1016.72
2019-03-12T01:56:59.451Z,1016.72
2019-03-12T01:57:59.488Z,1016.69
2019-03-12T01:58:59.410Z,1016.73
2019-03-12T01:59:59.435Z,1016.75
2019-03-12T02:00:59.391Z,1016.69
2019-03-12T02:01:59.405Z,1016.72
2019-03-12T02:02:59.375Z,1016.67
2019-03-12T02:03:59.360Z,1016.74
2019-03-12T02:04:59.342Z,1016.76
2019-03-12T02:05:59.343Z,1016.67
2019-03-12T02:06:59.320Z,1016.68
2019-03-12T02:07:59.313Z,1016.73
2019-03-12T02:08:59.301Z,1016.69
2019-03-12T02:09:59.310Z,1016.62
2019-03-12T02:10:59.284Z,1016.65
2019-03-12T02:11:59.265Z,1016.67
2019-03-12T02:12:59.264Z,1016.62
2019-03-12T02:13:59.255Z,1016.69
2019-03-12T02:14:59.256Z,1016.59
2019-03-12T02:15:59.242Z,1016.59
2019-03-12T02:16:59.210Z,1016.52
2019-03-12T02:17:59.201Z,1016.64
2019-03-12T02:18:59.196Z,1016.55
2019-03-12T02:19:59.194Z,1016.58
2019-03-12T02:20:59.196Z,1016.52
2019-03-12T02:21:59.166Z,1016.62
2019-03-12T02:22:59.157Z,1016.52
2019-03-12T02:23:59.143Z,1016.55
2019-03-12T02:24:59.153Z,1016.52
2019-03-12T02:25:59.129Z,1016.50
2019-03-12T02:26:59.108Z,1016.52
2019-03-12T02:27:59.094Z,1016.49
2019-03-12T02:28:59.110Z,1016.50
2019-03-12T02:29:59.080Z,1016.51
2019-03-12T02:30:59.126Z,1016.57
2019-03-12T02:31:59.068Z,1016.56
2019-03-12T02:32:59.058Z,1016.53
2019-03-12T02:33:59.058Z,1016.39
2019-03-12T02:34:59.020Z,1016.39
2019-03-12T02:35:59.029Z,1016.36
2019-03-12T02:36:59.003Z,1016.26
2019-03-12T02:37:58.997Z,1016.32
2019-03-12T02:38:58.984Z,1016.29
2019-03-12T02:39:58.975Z,1016.42
2019-03-12T02:40:58.975Z,1016.37
2019-03-12T02:41:58.939Z,1016.33
2019-03-12T02:42:58.959Z,1016.32
2019-03-12T02:43:58.931Z,1016.27
2019-03-12T02:44:58.953Z,1016.16
2019-03-12T02:45:58.901Z,1016.19
2019-03-12T02:46:58.948Z,1016.21
2019-03-12T02:47:58.872Z,1016.31
2019-03-12T02:48:58.865Z,1016.24
2019-03-12T02:49:58.854Z,1016.16
2019-03-12T02:50:58.844Z,1016.21
2019-03-12T02:51:58.874Z,1016.14
2019-03-12T02:52:58.825Z,1016.11
2019-03-12T02:53:58.812Z,1016.10
2019-03-12T02:54:58.801Z,1016.17
2019-03-12T02:56:01.755Z,1016.04
2019-03-12T02:56:58.777Z,1016.10
2019-03-12T02:57:58.860Z,1016.09
2019-03-12T02:58:58.758Z,1016.02
2019-03-12T02:59:58.751Z,1016.05
2019-03-12T03:00:58.736Z,1016.04
2019-03-12T03:01:58.769Z,1016.16
2019-03-12T03:02:58.709Z,1016.07
2019-03-12T03:03:58.739Z,1016.04
2019-03-12T03:04:58.689Z,1016.08
2019-03-12T03:05:58.691Z,1016.18
2019-03-12T03:06:58.691Z,1016.21
2019-03-12T03:07:58.690Z,1016.23
2019-03-12T03:08:58.698Z,1016.07
2019-03-12T03:09:58.632Z,1016.13
2019-03-12T03:10:58.700Z,1016.19
2019-03-12T03:11:58.654Z,1016.24
2019-03-12T03:12:58.619Z,1016.27
2019-03-12T03:13:58.602Z,1016.24
2019-03-12T03:14:58.607Z,1016.32
2019-03-12T03:15:58.586Z,1016.25
2019-03-12T03:16:58.574Z,1016.24
2019-03-12T03:17:58.553Z,1016.21
2019-03-12T03:18:58.546Z,1016.30
2019-03-12T03:19:58.556Z,1016.35
2019-03-12T03:20:58.532Z,1016.29
2019-03-12T03:21:58.500Z,1016.30
2019-03-12T03:22:58.561Z,1016.37
2019-03-12T03:23:58.506Z,1016.40
2019-03-12T03:24:58.489Z,1016.32
2019-03-12T03:25:58.481Z,1016.30
2019-03-12T03:26:58.447Z,1016.36
2019-03-12T03:27:58.440Z,1016.37
2019-03-12T03:28:58.428Z,1016.32
2019-03-12T03:29:58.432Z,1016.26
2019-03-12T03:30:58.454Z,1016.25
2019-03-12T03:31:58.418Z,1016.22
2019-03-12T03:32:58.624Z,1016.21
2019-03-12T03:33:58.389Z,1016.17
2019-03-12T03:34:58.370Z,1016.17
2019-03-12T03:35:58.369Z,1016.16
2019-03-12T03:36:58.363Z,1016.15
2019-03-12T03:37:58.335Z,1016.14
2019-03-12T03:38:58.324Z,1016.08
2019-03-12T03:39:58.321Z,1016.11
2019-03-12T03:40:58.304Z,1016.10
2019-03-12T03:41:58.327Z,1016.02
2019-03-12T03:42:58.284Z,1016.09
2019-03-12T03:43:58.263Z,1016.08
2019-03-12T03:44:58.251Z,1016.05
2019-03-12T03:45:58.249Z,1016.02
2019-03-12T03:46:58.260Z,1016.03
2019-03-12T03:47:58.237Z,1016.06
2019-03-12T03:48:58.219Z,1016.09
2019-03-12T03:49:58.222Z,1016.04
2019-03-12T03:50:58.194Z,1016.05
2019-03-12T03:51:58.186Z,1016.16
2019-03-12T03:52:58.218Z,1016.09
2019-03-12T03:53:58.158Z,1016.06
2019-03-12T03:54:58.151Z,1016.13
2019-03-12T03:55:58.138Z,1016.06
2019-03-12T03:56:58.131Z,1016.03
2019-03-12T03:57:58.177Z,1016.04
2019-03-12T03:58:58.102Z,1016.00
2019-03-12T03:59:58.107Z,1016.01
2019-03-12T04:00:58.095Z,1015.99
2019-03-12T04:01:58.106Z,1015.99
2019-03-12T04:02:58.064Z,1015.98
2019-03-12T04:03:58.104Z,1015.94
2019-03-12T04:04:58.041Z,1015.96
2019-03-12T04:05:58.042Z,1016.00
2019-03-12T04:06:58.024Z,1015.96
2019-03-12T04:07:58.046Z,1016.01
2019-03-12T04:08:57.999Z,1015.97
2019-03-12T04:09:58.015Z,1016.02
2019-03-12T04:10:57.974Z,1015.98
2019-03-12T04:11:57.998Z,1015.94
2019-03-12T04:12:57.969Z,1015.89
2019-03-12T04:13:58.003Z,1015.99
2019-03-12T04:14:57.948Z,1015.92
2019-03-12T04:15:57.942Z,1015.91
2019-03-12T04:16:57.910Z,1015.90
2019-03-12T04:17:57.925Z,1015.90
2019-03-12T04:18:57.904Z,1015.85
2019-03-12T04:19:57.885Z,1015.88
2019-03-12T04:20:57.871Z,1015.84
2019-03-12T04:21:57.889Z,1015.84
2019-03-12T04:22:57.852Z,1015.89
2019-03-12T04:23:57.842Z,1015.89
2019-03-12T04:24:57.838Z,1015.92
2019-03-12T04:25:57.822Z,1015.95
2019-03-12T04:26:57.837Z,1015.88
2019-03-12T04:27:57.829Z,1015.91
2019-03-12T04:28:57.786Z,1015.92
2019-03-12T04:29:57.922Z,1016.01
2019-03-12T04:30:57.774Z,1015.92
2019-03-12T04:31:57.751Z,1015.91
2019-03-12T04:32:57.769Z,1015.95
2019-03-12T04:33:57.722Z,1015.99
2019-03-12T04:34:57.716Z,1015.97
2019-03-12T04:35:57.754Z,1015.91
2019-03-12T04:36:57.716Z,1015.91
2019-03-12T04:37:57.685Z,1015.97
2019-03-12T04:38:57.704Z,1016.02
2019-03-12T04:39:57.663Z,1015.95
2019-03-12T04:40:57.649Z,1015.94
2019-03-12T04:41:57.672Z,1015.91
2019-03-12T04:42:57.676Z,1015.90
2019-03-12T04:43:57.630Z,1015.83
2019-03-12T04:44:57.638Z,1015.86
2019-03-12T04:45:57.593Z,1015.89
2019-03-12T04:46:57.603Z,1015.85
2019-03-12T04:47:57.582Z,1015.88
2019-03-12T04:48:57.566Z,1015.90
2019-03-12T04:49:57.562Z,1015.92
2019-03-12T04:50:57.574Z,1015.84
2019-03-12T04:51:57.545Z,1015.83
2019-03-12T04:52:57.516Z,1015.84
2019-03-12T04:53:57.518Z,1015.76
2019-03-12T04:54:57.494Z,1015.72
2019-03-12T04:55:57.488Z,1015.71
2019-03-12T04:56:57.503Z,1015.65
2019-03-12T04:57:57.465Z,1015.66
2019-03-12T04:58:57.451Z,1015.66
2019-03-12T04:59:57.446Z,1015.69
2019-03-12T05:00:57.464Z,1015.62
2019-03-12T05:01:57.442Z,1015.63
2019-03-12T05:02:57.441Z,1015.71
2019-03-12T05:03:57.397Z,1015.66
2019-03-12T05:04:57.387Z,1015.59
2019-03-12T05:05:57.431Z,1015.56
2019-03-12T05:06:57.460Z,1015.55
2019-03-12T05:07:57.418Z,1015.52
2019-03-12T05:08:57.395Z,1015.57
2019-03-12T05:09:57.347Z,1015.50
2019-03-12T05:10:57.330Z,1015.52
2019-03-12T05:11:57.317Z,1015.52
2019-03-12T05:12:57.309Z,1015.50
2019-03-12T05:13:57.315Z,1015.50
2019-03-12T05:14:57.284Z,1015.50
2019-03-12T05:15:57.284Z,1015.46
2019-03-12T05:16:57.265Z,1015.43
2019-03-12T05:17:57.273Z,1015.47
2019-03-12T05:18:57.365Z,1015.42
2019-03-12T05:19:57.380Z,1015.42
2019-03-12T05:20:57.217Z,1015.44
2019-03-12T05:21:57.207Z,1015.45
2019-03-12T05:22:57.192Z,1015.43
2019-03-12T05:23:57.190Z,1015.38
2019-03-12T05:24:57.176Z,1015.42
2019-03-12T05:25:57.197Z,1015.42
2019-03-12T05:26:57.151Z,1015.46
2019-03-12T05:27:57.147Z,1015.40
2019-03-12T05:28:57.142Z,1015.37
2019-03-12T05:29:57.116Z,1015.35
2019-03-12T05:30:57.151Z,1015.40
2019-03-12T05:31:57.094Z,1015.33
2019-03-12T05:32:57.094Z,1015.33
2019-03-12T05:33:57.084Z,1015.30
2019-03-12T05:34:57.061Z,1015.30
2019-03-12T05:35:57.077Z,1015.34
2019-03-12T05:36:57.068Z,1015.28
2019-03-12T05:37:57.043Z,1015.35
2019-03-12T05:38:57.038Z,1015.28
2019-03-12T05:39:57.010Z,1015.25
2019-03-12T05:40:57.007Z,1015.22
2019-03-12T05:41:56.998Z,1015.28
2019-03-12T05:42:57.072Z,1015.26
2019-03-12T05:43:56.986Z,1015.26
2019-03-12T05:44:56.964Z,1015.28
2019-03-12T05:45:56.950Z,1015.21
2019-03-12T05:46:56.973Z,1015.25
2019-03-12T05:47:56.966Z,1015.19
2019-03-12T05:48:56.911Z,1015.27
2019-03-12T05:49:56.923Z,1015.26
2019-03-12T05:50:56.901Z,1015.26
2019-03-12T05:51:56.888Z,1015.26
2019-03-12T05:52:56.893Z,1015.25
2019-03-12T05:53:56.887Z,1015.25
2019-03-12T05:54:56.878Z,1015.28
2019-03-12T05:55:56.854Z,1015.24
2019-03-12T05:56:56.873Z,1015.26
2019-03-12T05:57:56.827Z,1015.28
2019-03-12T05:58:56.821Z,1015.27
2019-03-12T05:59:56.809Z,1015.21
2019-03-12T06:00:56.813Z,1015.29
2019-03-12T06:01:56.774Z,1015.24
2019-03-12T06:02:56.823Z,1015.29
2019-03-12T06:03:56.781Z,1015.27
2019-03-12T06:04:56.786Z,1015.34
2019-03-12T06:05:56.754Z,1015.28
2019-03-12T06:06:56.720Z,1015.25
2019-03-12T06:07:56.719Z,1015.22
2019-03-12T06:08:56.700Z,1015.17
2019-03-12T06:09:56.724Z,1015.21
2019-03-12T06:10:56.685Z,1015.19
2019-03-12T06:11:56.669Z,1015.21
2019-03-12T06:12:56.665Z,1015.26
2019-03-12T06:13:56.654Z,1015.23
2019-03-12T06:14:56.652Z,1015.24
2019-03-12T06:15:56.656Z,1015.32
2019-03-12T06:16:56.621Z,1015.26
2019-03-12T06:17:56.642Z,1015.26
2019-03-12T06:18:56.601Z,1015.30
2019-03-12T06:19:56.587Z,1015.36
2019-03-12T06:20:56.573Z,1015.30
2019-03-12T06:21:56.589Z,1015.29
2019-03-12T06:22:56.556Z,1015.19
2019-03-12T06:23:56.553Z,1015.15
2019-03-12T06:24:56.527Z,1015.22
2019-03-12T06:25:56.519Z,1015.13
2019-03-12T06:26:56.508Z,1015.18
2019-03-12T06:27:56.540Z,1015.19
2019-03-12T06:28:56.487Z,1015.21
2019-03-12T06:29:56.488Z,1015.13
2019-03-12T06:30:56.491Z,1015.28
2019-03-12T06:31:56.454Z,1015.25
2019-03-12T06:32:56.444Z,1015.17
2019-03-12T06:33:56.459Z,1015.14
2019-03-12T06:34:56.426Z,1015.08
2019-03-12T06:35:56.414Z,1015.19
2019-03-12T06:36:56.411Z,1015.13
2019-03-12T06:37:56.415Z,1015.05
2019-03-12T06:38:56.399Z,1015.07
2019-03-12T06:39:56.393Z,1015.21
2019-03-12T06:40:56.392Z,1015.09
2019-03-12T06:41:56.357Z,1015.09
2019-03-12T06:42:56.362Z,1015.14
2019-03-12T06:43:56.333Z,1015.14
2019-03-12T06:44:56.377Z,1015.08
2019-03-12T06:45:56.413Z,1015.10
2019-03-12T06:46:56.298Z,1015.09
2019-03-12T06:47:56.313Z,1014.99
2019-03-12T06:48:56.284Z,1015.05
2019-03-12T06:49:56.292Z,1014.99
2019-03-12T06:50:56.259Z,1014.96
2019-03-12T06:51:56.254Z,1014.95
2019-03-12T06:52:56.241Z,1014.98
2019-03-12T06:53:56.227Z,1015.00
2019-03-12T06:54:56.244Z,1014.92
2019-03-12T06:55:56.202Z,1015.08
2019-03-12T06:56:56.202Z,1014.89
2019-03-12T06:57:56.189Z,1014.93
2019-03-12T06:58:56.169Z,1014.90
2019-03-12T06:59:56.187Z,1014.82
2019-03-12T07:00:56.164Z,1014.85
2019-03-12T07:01:56.139Z,1014.85
2019-03-12T07:02:56.210Z,1014.77
2019-03-12T07:03:56.146Z,1014.76
2019-03-12T07:04:56.116Z,1014.72
2019-03-12T07:05:56.122Z,1014.69
2019-03-12T07:06:56.175Z,1014.61
2019-03-12T07:07:56.077Z,1014.64
2019-03-12T07:08:56.073Z,1014.65
2019-03-12T07:09:56.079Z,1014.64
2019-03-12T07:10:56.054Z,1014.56
2019-03-12T07:11:56.052Z,1014.57
2019-03-12T07:12:56.065Z,1014.50
2019-03-12T07:13:56.016Z,1014.64
2019-03-12T07:14:56.069Z,1014.48
2019-03-12T07:15:55.991Z,1014.50
2019-03-12T07:16:55.994Z,1014.52
2019-03-12T07:17:56.047Z,1014.65
2019-03-12T07:18:55.957Z,1014.50
2019-03-12T07:19:55.944Z,1014.53
2019-03-12T07:20:55.950Z,1014.56
2019-03-12T07:21:55.947Z,1014.60
2019-03-12T07:22:55.912Z,1014.58
2019-03-12T07:23:55.906Z,1014.63
2019-03-12T07:24:55.892Z,1014.66
2019-03-12T07:25:55.910Z,1014.62
2019-03-12T07:26:55.870Z,1014.67
2019-03-12T07:27:55.889Z,1014.58
2019-03-12T07:28:55.853Z,1014.59
2019-03-12T07:29:55.851Z,1014.75
2019-03-12T07:30:55.839Z,1014.60
2019-03-12T07:31:55.849Z,1014.55
2019-03-12T07:32:56.421Z,1014.58
2019-03-12T07:33:55.815Z,1014.62
2019-03-12T07:34:55.784Z,1014.55
2019-03-12T07:35:55.804Z,1014.48
2019-03-12T07:36:55.774Z,1014.48
2019-03-12T07:37:55.781Z,1014.43
2019-03-12T07:38:55.754Z,1014.41
2019-03-12T07:39:55.741Z,1014.43
2019-03-12T07:40:55.730Z,1014.35
2019-03-12T07:41:55.727Z,1014.33
2019-03-12T07:42:55.719Z,1014.39
2019-03-12T07:43:55.716Z,1014.32
2019-03-12T07:44:55.685Z,1014.25
2019-03-12T07:45:55.726Z,1014.23
2019-03-12T07:46:55.659Z,1014.17
2019-03-12T07:47:55.675Z,1014.19
2019-03-12T07:48:55.652Z,1014.10
2019-03-12T07:49:55.649Z,1014.05
2019-03-12T07:50:55.625Z,1014.07
2019-03-12T07:51:55.632Z,1014.02
2019-03-12T07:52:55.605Z,1013.94
2019-03-12T07:53:59.852Z,1013.97
2019-03-12T07:54:55.597Z,1013.85
2019-03-12T07:55:55.594Z,1013.83
2019-03-12T07:56:55.570Z,1013.85
2019-03-12T07:57:55.565Z,1013.82
2019-03-12T07:58:55.533Z,1013.77
2019-03-12T07:59:55.539Z,1013.79
2019-03-12T08:00:55.624Z,1013.77
2019-03-12T08:01:55.531Z,1013.74
2019-03-12T08:02:55.498Z,1013.72
2019-03-12T08:03:55.528Z,1013.73
2019-03-12T08:04:55.478Z,1013.66
2019-03-12T08:05:55.474Z,1013.60
2019-03-12T08:06:55.472Z,1013.61
2019-03-12T08:07:55.482Z,1013.57
2019-03-12T08:08:55.455Z,1013.64
2019-03-12T08:09:55.417Z,1013.54
2019-03-12T08:10:55.418Z,1013.50
2019-03-12T08:11:55.404Z,1013.52
2019-03-12T08:12:55.428Z,1013.37
2019-03-12T08:13:55.383Z,1013.43
2019-03-12T08:14:55.372Z,1013.44
2019-03-12T08:15:55.361Z,1013.42
2019-03-12T08:16:55.346Z,1013.37
2019-03-12T08:17:55.370Z,1013.33
2019-03-12T08:18:55.338Z,1013.33
2019-03-12T08:19:55.359Z,1013.35
2019-03-12T08:20:55.311Z,1013.27
2019-03-12T08:21:55.305Z,1013.27
2019-03-12T08:22:55.289Z,1013.23
2019-03-12T08:23:55.387Z,1013.23
2019-03-12T08:24:55.270Z,1013.23
2019-03-12T08:25:55.261Z,1013.18
2019-03-12T08:26:55.297Z,1013.23
2019-03-12T08:27:55.231Z,1013.12
2019-03-12T08:28:55.231Z,1013.15
2019-03-12T08:29:55.245Z,1013.07
2019-03-12T08:30:55.204Z,1013.13
2019-03-12T08:31:55.202Z,1013.13
2019-03-12T08:32:55.181Z,1013.11
2019-03-12T08:33:55.181Z,1013.03
2019-03-12T08:34:55.163Z,1013.10
2019-03-12T08:35:55.202Z,1013.10
2019-03-12T08:36:55.160Z,1013.03
2019-03-12T08:37:55.135Z,1013.00
2019-03-12T08:38:55.135Z,1013.09
2019-03-12T08:39:55.124Z,1013.04
2019-03-12T08:40:55.097Z,1012.98
2019-03-12T08:41:55.113Z,1013.01
2019-03-12T08:42:55.181Z,1013.03
2019-03-12T08:43:55.074Z,1013.03
2019-03-12T08:44:55.051Z,1012.94
2019-03-12T08:45:55.055Z,1012.91
2019-03-12T08:46:55.058Z,1012.84
2019-03-12T08:47:55.033Z,1012.81
2019-03-12T08:48:55.046Z,1012.85
2019-03-12T08:49:55.012Z,1012.81
2019-03-12T08:50:54.998Z,1012.74
2019-03-12T08:51:54.977Z,1012.71
2019-03-12T08:52:55.002Z,1012.68
2019-03-12T08:53:54.974Z,1012.67
2019-03-12T08:54:54.993Z,1012.73
2019-03-12T08:55:54.935Z,1012.53
2019-03-12T08:56:54.955Z,1012.51
2019-03-12T08:57:54.915Z,1012.41
2019-03-12T08:58:54.919Z,1012.51
2019-03-12T08:59:54.902Z,1012.34
2019-03-12T09:00:54.892Z,1012.29
2019-03-12T09:01:54.873Z,1012.42
2019-03-12T09:02:54.883Z,1012.43
2019-03-12T09:03:54.855Z,1012.37
2019-03-12T09:04:54.850Z,1012.40
2019-03-12T09:05:54.856Z,1012.41
2019-03-12T09:06:54.837Z,1012.46
2019-03-12T09:07:54.862Z,1012.44
2019-03-12T09:08:54.798Z,1012.50
2019-03-12T09:09:54.802Z,1012.41
2019-03-12T09:10:54.784Z,1012.40
2019-03-12T09:11:54.779Z,1012.46
2019-03-12T09:12:54.804Z,1012.40
2019-03-12T09:13:54.825Z,1012.30
2019-03-12T09:14:54.736Z,1012.33
2019-03-12T09:15:54.726Z,1012.30
2019-03-12T09:16:54.722Z,1012.18
2019-03-12T09:17:54.719Z,1012.12
2019-03-12T09:18:54.721Z,1012.08
2019-03-12T09:19:54.678Z,1012.07
2019-03-12T09:20:54.671Z,1012.03
2019-03-12T09:21:54.655Z,1012.04
2019-03-12T09:22:54.667Z,1012.01
2019-03-12T09:23:54.652Z,1011.95
2019-03-12T09:24:54.659Z,1011.87
2019-03-12T09:25:54.619Z,1012.02
2019-03-12T09:26:54.608Z,1011.90
2019-03-12T09:27:54.595Z,1011.95
2019-03-12T09:28:54.590Z,1011.86
2019-03-12T09:29:54.623Z,1011.83
2019-03-12T09:30:54.587Z,1011.89
2019-03-12T09:31:54.551Z,1011.87
2019-03-12T09:32:54.569Z,1011.79
2019-03-12T09:33:54.538Z,1011.70
2019-03-12T09:34:54.538Z,1011.73
2019-03-12T09:35:54.519Z,1011.77
2019-03-12T09:36:54.502Z,1011.77
2019-03-12T09:37:54.494Z,1011.75
2019-03-12T09:38:54.489Z,1011.67
2019-03-12T09:39:54.499Z,1011.66
2019-03-12T09:40:54.476Z,1011.66
2019-03-12T09:41:54.456Z,1011.67
2019-03-12T09:42:54.435Z,1011.63
2019-03-12T09:43:54.450Z,1011.58
2019-03-12T09:44:54.419Z,1011.54
2019-03-12T09:45:54.435Z,1011.50
2019-03-12T09:46:54.393Z,1011.46
2019-03-12T09:47:54.397Z,1011.41
2019-03-12T09:48:54.377Z,1011.33
2019-03-12T09:49:54.361Z,1011.34
2019-03-12T09:50:54.345Z,1011.29
2019-03-12T09:51:54.368Z,1011.25
2019-03-12T09:52:54.333Z,1011.29
2019-03-12T09:53:54.317Z,1011.32
2019-03-12T09:54:54.302Z,1011.31
2019-03-12T09:55:54.297Z,1011.45
2019-03-12T09:56:54.280Z,1011.44
2019-03-12T09:57:54.302Z,1011.41
2019-03-12T09:58:54.269Z,1011.39
2019-03-12T09:59:54.282Z,1011.40
2019-03-12T10:00:54.247Z,1011.41
2019-03-12T10:01:54.228Z,1011.49
2019-03-12T10:02:54.234Z,1011.37
2019-03-12T10:03:54.226Z,1011.51
2019-03-12T10:04:54.209Z,1011.35
2019-03-12T10:05:54.190Z,1011.32
2019-03-12T10:06:54.177Z,1011.25
2019-03-12T10:07:54.165Z,1011.79
2019-03-12T10:08:54.189Z,1011.16
2019-03-12T10:09:54.156Z,1011.19
2019-03-12T10:10:54.139Z,1011.18
2019-03-12T10:11:54.128Z,1011.17
2019-03-12T10:12:54.148Z,1011.06
2019-03-12T10:13:54.097Z,1011.07
2019-03-12T10:14:54.106Z,1011.09
2019-03-12T10:15:54.098Z,1011.12
2019-03-12T10:16:54.107Z,1011.14
2019-03-12T10:17:54.060Z,1011.16
2019-03-12T10:18:54.051Z,1010.99
2019-03-12T10:19:54.070Z,1011.06
2019-03-12T10:20:54.042Z,1011.14
2019-03-12T10:21:54.013Z,1010.96
2019-03-12T10:22:54.028Z,1010.87
2019-03-12T10:23:53.992Z,1010.89
2019-03-12T10:24:53.981Z,1010.90
2019-03-12T10:25:53.992Z,1010.84
2019-03-12T10:26:53.980Z,1010.80
2019-03-12T10:27:53.952Z,1010.89
2019-03-12T10:28:53.963Z,1010.88
2019-03-12T10:29:53.971Z,1010.84
2019-03-12T10:30:53.927Z,1010.88
2019-03-12T10:31:53.929Z,1010.89
2019-03-12T10:32:53.890Z,1010.77
2019-03-12T10:33:53.879Z,1010.82
2019-03-12T10:34:53.879Z,1010.84
2019-03-12T10:35:53.943Z,1010.78
2019-03-12T10:36:53.865Z,1011.05
2019-03-12T10:37:53.852Z,1010.87
2019-03-12T10:38:53.847Z,1010.64
2019-03-12T10:39:53.829Z,1010.61
2019-03-12T10:40:53.879Z,1010.52
2019-03-12T10:41:53.903Z,1010.39
2019-03-12T10:42:53.788Z,1010.56
2019-03-12T10:43:55.513Z,1010.54
2019-03-12T10:44:53.764Z,1010.42
2019-03-12T10:45:53.747Z,1010.77
2019-03-12T10:46:53.753Z,1010.41
2019-03-12T10:47:53.751Z,1010.64
2019-03-12T10:49:00.744Z,1010.47
2019-03-12T10:49:53.706Z,1010.45
2019-03-12T10:50:53.698Z,1010.44
2019-03-12T10:51:53.684Z,1010.44
2019-03-12T10:52:53.673Z,1010.44
2019-03-12T10:53:53.686Z,1010.51
2019-03-12T10:54:53.685Z,1010.25
2019-03-12T10:55:53.645Z,1010.19
2019-03-12T10:56:53.636Z,1010.15
2019-03-12T10:57:53.617Z,1010.03
2019-03-12T10:58:53.625Z,1010.06
2019-03-12T10:59:53.616Z,1009.99
2019-03-12T11:00:53.586Z,1010.03
2019-03-12T11:01:53.572Z,1010.10
2019-03-12T11:02:53.569Z,1010.06
2019-03-12T11:03:53.550Z,1010.00
2019-03-12T11:04:53.599Z,1009.92
2019-03-12T11:05:53.551Z,1009.91
2019-03-12T11:06:53.553Z,1010.12
2019-03-12T11:07:54.294Z,1009.93
2019-03-12T11:08:53.506Z,1009.91
2019-03-12T11:09:53.544Z,1009.86
2019-03-12T11:10:53.500Z,1009.92
2019-03-12T11:11:53.506Z,1009.85
2019-03-12T11:12:53.470Z,1009.98
2019-03-12T11:13:53.466Z,1009.93
2019-03-12T11:14:53.474Z,1009.65
2019-03-12T11:15:53.451Z,1009.81
2019-03-12T11:16:53.421Z,1009.90
2019-03-12T11:17:53.405Z,1009.75
2019-03-12T11:18:53.394Z,1009.64
2019-03-12T11:19:53.381Z,1009.75
2019-03-12T11:20:53.372Z,1009.70
2019-03-12T11:21:53.398Z,1009.69
2019-03-12T11:22:53.352Z,1009.72
2019-03-12T11:23:53.345Z,1009.79
2019-03-12T11:24:53.322Z,1009.63
2019-03-12T11:25:53.317Z,1009.71
2019-03-12T11:26:53.301Z,1009.63
2019-03-12T11:27:53.306Z,1009.63
2019-03-12T11:28:53.285Z,1009.59
2019-03-12T11:29:53.287Z,1009.54
2019-03-12T11:30:53.269Z,1009.56
2019-03-12T11:31:53.253Z,1009.55
2019-03-12T11:32:53.271Z,1009.48
2019-03-12T11:33:53.237Z,1009.55
2019-03-12T11:34:53.223Z,1009.46
2019-03-12T11:35:53.286Z,1009.44
2019-03-12T11:36:53.201Z,1009.43
2019-03-12T11:37:53.248Z,1009.42
2019-03-12T11:38:53.171Z,1009.28
2019-03-12T11:39:53.175Z,1009.23
2019-03-12T11:40:53.219Z,1009.28
2019-03-12T11:41:53.163Z,1009.21
2019-03-12T11:42:53.173Z,1009.12
2019-03-12T11:43:53.145Z,1009.03
2019-03-12T11:44:53.163Z,1008.85
2019-03-12T11:45:53.157Z,1008.91
2019-03-12T11:46:53.099Z,1008.87
2019-03-12T11:47:53.116Z,1008.84
2019-03-12T11:48:53.083Z,1008.76
2019-03-12T11:49:53.053Z,1008.77
2019-03-12T11:50:53.052Z,1008.67
2019-03-12T11:51:53.278Z,1008.64
2019-03-12T11:52:57.487Z,1008.65
2019-03-12T11:53:54.304Z,1008.58
2019-03-12T11:54:53.009Z,1008.57
2019-03-12T11:55:53.005Z,1008.52
2019-03-12T11:56:53.205Z,1008.42
2019-03-12T11:57:53.047Z,1008.47
2019-03-12T11:58:52.963Z,1008.44
2019-03-12T11:59:52.979Z,1008.39
2019-03-12T12:00:52.990Z,1008.37
2019-03-12T12:01:52.967Z,1008.35
2019-03-12T12:02:59.877Z,1008.36
2019-03-12T12:03:53.921Z,1008.38
2019-03-12T12:04:52.924Z,1008.35